Dragonera — CQEN — position and weather

sailwx.info

Track history (hours):
 
Tides and Currents Weather Stations Pressure Air Temp Water Temp Dewpoint Dewpoint Depression Visibility Wind Speed Wind Dir Waves Ship Positions

Dragonera

Last reported at 2017-Sep-13 17:48 UTC. Time now 2017-Sep-21 23:19 UTC.
Position N 49°37' W 004°15'.
Warning: this ship's position is 8 days out of date.

Length 100 m; draft 4.5 m.

Type: Cargo ship. MMSI: 255805691.

Date/timePositionNaut miles runAvg speedWind from/ knotsBaromVisibWave heightAir tempDewpointWater temp
2017-Sep-13 17:48N 49°37' W 004°15'2 8.2
2017-Sep-13 17:30N 49°38' W 004°12'4 8.3
2017-Sep-13 16:57N 49°40' W 004°05'4 8.6
2017-Sep-13 16:30N 49°42' W 004°00'4 9.0
2017-Sep-13 16:01N 49°43' W 003°54'4 7.8
2017-Sep-13 15:30N 49°45' W 003°48'4 7.6
2017-Sep-13 15:01N 49°47' W 003°43'4 7.2
2017-Sep-13 14:30N 49°48' W 003°38'3 6.8
2017-Sep-13 14:01N 49°50' W 003°33'3 5.3
2017-Sep-13 13:30N 49°50' W 003°29'3 5.3
2017-Sep-13 13:01N 49°51' W 003°25'2 4.6
2017-Sep-13 12:30N 49°52' W 003°22'2 4.1
2017-Sep-13 12:01N 49°53' W 003°19'2 4.0
2017-Sep-13 11:31N 49°53' W 003°16'2 4.1
2017-Sep-13 11:00N 49°54' W 003°13'2 3.6
2017-Sep-13 10:30N 49°54' W 003°10'2 3.5
2017-Sep-13 10:01N 49°55' W 003°08'2 3.5
2017-Sep-13 09:30N 49°55' W 003°05'2 3.5
2017-Sep-13 09:00N 49°55' W 003°02'2 3.5
2017-Sep-13 08:31N 49°56' W 002°60'2 3.6
2017-Sep-13 08:01N 49°56' W 002°57'2 3.8
2017-Sep-13 07:30N 49°57' W 002°54'2 4.1
2017-Sep-13 07:01N 49°58' W 002°51'2 4.2
2017-Sep-13 06:30N 49°59' W 002°48'2 3.9
2017-Sep-13 06:00N 49°59' W 002°46'2 3.6
2017-Sep-13 05:31N 50°00' W 002°43'2 3.2
2017-Sep-13 05:01N 50°00' W 002°41'2 3.9
2017-Sep-13 04:31N 50°01' W 002°38'2 3.4
2017-Sep-13 03:52N 50°01' W 002°34'17 2.3
2017-Sep-12 20:18N 50°07' W 002°08'2 7.3
2017-Sep-12 20:00N 50°07' W 002°05'4 8.7
2017-Sep-12 19:30N 50°08' W 001°59'510.4
2017-Sep-12 19:01N 50°10' W 001°51'611.2
2017-Sep-12 18:30N 50°12' W 001°43'612.0
2017-Sep-12 18:01N 50°13' W 001°34'612.6
2017-Sep-12 17:30N 50°15' W 001°24'612.3
2017-Sep-12 17:00N 50°17' W 001°15'3010.4
2017-Sep-12 14:08N 50°25' W 000°30'1 8.8
2017-Sep-12 14:00N 50°26' W 000°28'4 8.5
2017-Sep-12 13:31N 50°27' W 000°22'4 8.2
2017-Sep-12 13:00N 50°28' W 000°16'4 8.2
2017-Sep-12 12:30N 50°28' W 000°09'4 8.3
2017-Sep-12 12:01N 50°29' W 000°03'4 8.4
2017-Sep-12 11:31N 50°31' E 000°03'5 9.0
2017-Sep-12 11:00N 50°32' E 000°10'5 9.6
2017-Sep-12 10:31N 50°34' E 000°17'510.1
2017-Sep-12 10:00N 50°36' E 000°24'510.9
2017-Sep-12 09:30N 50°38' E 000°32'611.2
2017-Sep-12 09:01N 50°41' E 000°40'611.8
2017-Sep-12 08:31N 50°44' E 000°48'611.6
2017-Sep-12 08:00N 50°48' E 000°55'611.4
2017-Sep-12 07:30N 50°51' E 001°02'711.1
2017-Sep-12 06:54N 50°55' E 001°10'410.5
2017-Sep-12 06:28N 50°58' E 001°16'5 9.9
2017-Sep-12 06:00N 51°01' E 001°22'5 9.2
2017-Sep-12 05:31N 51°04' E 001°27'4 8.5
2017-Sep-12 05:01N 51°07' E 001°32'4 7.7
2017-Sep-12 04:31N 51°09' E 001°37'4 7.8
2017-Sep-12 04:01N 51°12' E 001°41'4 8.1
2017-Sep-12 03:31N 51°15' E 001°46'4 8.7
2017-Sep-12 03:01N 51°18' E 001°50'5 9.4
2017-Sep-12 02:31N 51°22' E 001°56'5 9.6
2017-Sep-12 02:01N 51°25' E 002°01'510.0
2017-Sep-12 01:30N 51°23' E 002°09'510.1
2017-Sep-12 01:01N 51°21' E 002°16'510.9
2017-Sep-12 00:31N 51°22' E 002°25'510.8
2017-Sep-12 00:00N 51°23' E 002°33'510.4
2017-Sep-11 23:31N 51°23' E 002°41'4 8.8
2017-Sep-11 23:01N 51°21' E 002°48'510.8
2017-Sep-11 22:30N 51°22' E 002°57'611.1
2017-Sep-11 22:00N 51°22' E 003°05'611.6
2017-Sep-11 21:30N 51°24' E 003°14'612.3
2017-Sep-11 21:01N 51°25' E 003°24'713.4
2017-Sep-11 20:31N 51°26' E 003°35'3 5.8
2017-Sep-11 20:01N 51°27' E 003°39'713.4
2017-Sep-11 19:30N 51°23' E 003°48'5 9.6
2017-Sep-11 19:00N 51°25' E 003°55'4 8.6
2017-Sep-11 18:30N 51°26' E 004°02'510.4
2017-Sep-11 18:00N 51°23' E 004°09'3 7.0
2017-Sep-11 17:30N 51°21' E 004°14'2 4.1
2017-Sep-11 17:00N 51°21' E 004°17'0 0.0
2017-Sep-11 16:30N 51°21' E 004°17'1 1.1
2017-Sep-11 16:00N 51°20' E 004°18'3 6.2
2017-Sep-11 15:30N 51°18' E 004°20'3 4.8
2017-Sep-11 14:58N 51°16' E 004°23'0 0.0
2017-Sep-11 14:28N 51°16' E 004°23'0 0.0
2017-Sep-11 13:58N 51°16' E 004°23'0 0.0
2017-Sep-11 13:28N 51°16' E 004°23'0 0.0
2017-Sep-11 12:58N 51°16' E 004°23'0 0.0
2017-Sep-11 12:28N 51°16' E 004°23'0 0.0
2017-Sep-11 11:58N 51°16' E 004°23'0 0.0
2017-Sep-11 11:28N 51°16' E 004°23'0 0.0
2017-Sep-11 10:58N 51°16' E 004°23'0 0.0
2017-Sep-11 10:28N 51°16' E 004°23'0 0.0
2017-Sep-11 09:58N 51°16' E 004°23'0 0.0
2017-Sep-11 09:28N 51°16' E 004°23'0 0.0
2017-Sep-11 08:58N 51°16' E 004°23'0 0.0
2017-Sep-11 08:28N 51°16' E 004°23'0 0.0
2017-Sep-11 07:58N 51°16' E 004°23'0 0.0
2017-Sep-11 07:28N 51°16' E 004°23'0 0.0
2017-Sep-11 06:58N 51°16' E 004°23'0 0.0
2017-Sep-11 06:28N 51°16' E 004°23'0 0.0
2017-Sep-11 05:58N 51°16' E 004°23'0 0.0
2017-Sep-11 05:28N 51°16' E 004°23'0 0.0
2017-Sep-11 04:58N 51°16' E 004°23'0 0.0
2017-Sep-11 04:28N 51°16' E 004°23'0 0.0
2017-Sep-11 03:58N 51°16' E 004°23'0 0.0
2017-Sep-11 03:28N 51°16' E 004°23'0 0.0
2017-Sep-11 02:58N 51°16' E 004°23'0 0.0
2017-Sep-11 02:28N 51°16' E 004°23'0 0.0
2017-Sep-11 01:58N 51°16' E 004°23'0 0.0
2017-Sep-11 01:28N 51°16' E 004°23'0 0.0
2017-Sep-11 00:58N 51°16' E 004°23'0 0.0
2017-Sep-11 00:28N 51°16' E 004°23'0 0.0
2017-Sep-10 23:58N 51°16' E 004°23'0 0.0
2017-Sep-10 23:28N 51°16' E 004°23'0 0.0
2017-Sep-10 22:58N 51°16' E 004°23'0 0.0
2017-Sep-10 22:28N 51°16' E 004°23'0 0.0
2017-Sep-10 21:58N 51°16' E 004°23'0 0.0
2017-Sep-10 21:28N 51°16' E 004°23'0 0.0
2017-Sep-10 20:58N 51°16' E 004°23'0 0.0
2017-Sep-10 20:28N 51°16' E 004°23'0 0.0
2017-Sep-10 19:58N 51°16' E 004°23'0 0.0
2017-Sep-10 19:28N 51°16' E 004°23'0 0.0
2017-Sep-10 18:58N 51°16' E 004°23'0 0.0
2017-Sep-10 18:28N 51°16' E 004°23'0 0.0
2017-Sep-10 17:58N 51°16' E 004°23'0 0.0
2017-Sep-10 17:28N 51°16' E 004°23'0 0.0
2017-Sep-10 16:58N 51°16' E 004°23'0 0.0
2017-Sep-10 16:28N 51°16' E 004°23'0 0.0
2017-Sep-10 15:58N 51°16' E 004°23'0 0.1
2017-Sep-10 15:30N 51°16' E 004°23'2 3.4
2017-Sep-10 15:00N 51°16' E 004°20'0 0.3
2017-Sep-10 14:00N 51°17' E 004°20'0 0.0
2017-Sep-10 13:30N 51°17' E 004°20'1 2.2
2017-Sep-10 13:00N 51°17' E 004°19'4 8.9
2017-Sep-10 12:30N 51°21' E 004°15'4 7.9
2017-Sep-10 12:01N 51°22' E 004°09'5 9.3
2017-Sep-10 11:30N 51°24' E 004°02'3 5.7
2017-Sep-10 11:00N 51°24' E 003°57'5 9.9
2017-Sep-10 10:30N 51°21' E 003°51'5 9.4
2017-Sep-10 10:00N 51°22' E 003°44'5 9.0
2017-Sep-10 09:30N 51°25' E 003°38'4 8.0
2017-Sep-10 09:00N 51°25' E 003°32'5 9.3
2017-Sep-10 08:30N 51°24' E 003°25'5 9.1
2017-Sep-10 08:00N 51°24' E 003°17'5 9.3
2017-Sep-10 07:30N 51°24' E 003°10'510.4
2017-Sep-10 07:00N 51°24' E 003°02'611.4
2017-Sep-10 06:30N 51°23' E 002°53'611.7
2017-Sep-10 06:00N 51°22' E 002°43'510.3
2017-Sep-10 05:30N 51°22' E 002°35'5 9.4
2017-Sep-10 05:00N 51°21' E 002°28'5 9.4
2017-Sep-10 04:30N 51°19' E 002°21'5 9.5
2017-Sep-10 04:00N 51°17' E 002°14'4 8.8
2017-Sep-10 03:30N 51°15' E 002°08'5 9.1
2017-Sep-10 03:00N 51°12' E 002°02'5 9.3
2017-Sep-10 02:30N 51°10' E 001°56'5 9.5
2017-Sep-10 02:00N 51°07' E 001°49'510.7
2017-Sep-10 01:30N 51°04' E 001°43'510.9
2017-Sep-10 01:00N 50°60' E 001°37'610.9
2017-Sep-10 00:30N 50°56' E 001°31'510.5
2017-Sep-10 00:00N 50°51' E 001°28'510.0
2017-Sep-09 23:29N 50°46' E 001°25'5 9.5
2017-Sep-09 22:59N 50°42' E 001°22'42 9.6
2017-Sep-09 18:37N 50°22' E 000°24'410.0
2017-Sep-09 18:13N 50°21' E 000°18'2 9.8
2017-Sep-09 18:00N 50°20' E 000°15'5 9.8
2017-Sep-09 17:30N 50°19' E 000°08'5 9.8
2017-Sep-09 17:00N 50°18' E 000°00'5 9.6
2017-Sep-09 16:30N 50°17' W 000°07'6 9.6
2017-Sep-09 15:55N 50°15' W 000°15'19 9.6
2017-Sep-09 13:56N 50°10' W 000°44'410.5
2017-Sep-09 13:30N 50°09' W 000°51'611.3
2017-Sep-09 13:01N 50°08' W 000°60'612.0
2017-Sep-09 12:31N 50°06' W 001°09'612.9
2017-Sep-09 12:00N 50°05' W 001°18'713.4
2017-Sep-09 11:31N 50°02' W 001°28'714.2
2017-Sep-09 11:01N 50°00' W 001°39'714.8
2017-Sep-09 10:30N 49°58' W 001°50'713.8
2017-Sep-09 10:01N 49°57' W 002°00'714.9
2017-Sep-09 09:30N 49°55' W 002°12'2113.9
2017-Sep-09 08:01N 49°50' W 002°42'012.9
2017-Sep-09 08:00N 49°50' W 002°43'713.3
2017-Sep-09 07:30N 49°48' W 002°52'812.8
2017-Sep-09 06:54N 49°44' W 003°03'512.4
2017-Sep-09 06:30N 49°42' W 003°10'612.0
2017-Sep-09 06:00N 49°39' W 003°18'612.0
2017-Sep-09 05:30N 49°36' W 003°26'611.9
2017-Sep-09 05:00N 49°34' W 003°34'911.6
2017-Sep-09 04:14N 49°30' W 003°47'311.3
2017-Sep-09 03:59N 49°29' W 003°51'  
Track history (hours):
 
Tides and Currents Weather Stations Pressure Air Temp Water Temp Dewpoint Dewpoint Depression Visibility Wind Speed Wind Dir Waves Ship Positions

Dragonera

Last reported at 2017-Sep-13 17:48 UTC. Time now 2017-Sep-21 23:19 UTC.
Position N 49°37' W 004°15'.
Warning: this ship's position is 8 days out of date.

Length 100 m; draft 4.5 m.

Type: Cargo ship. MMSI: 255805691.

Date/timePositionNaut miles runAvg speedWind from/ knotsBaromVisibWave heightAir tempDewpointWater temp
2017-Sep-13 17:48N 49°37' W 004°15'2 8.2
2017-Sep-13 17:30N 49°38' W 004°12'4 8.3
2017-Sep-13 16:57N 49°40' W 004°05'4 8.6
2017-Sep-13 16:30N 49°42' W 004°00'4 9.0
2017-Sep-13 16:01N 49°43' W 003°54'4 7.8
2017-Sep-13 15:30N 49°45' W 003°48'4 7.6
2017-Sep-13 15:01N 49°47' W 003°43'4 7.2
2017-Sep-13 14:30N 49°48' W 003°38'3 6.8
2017-Sep-13 14:01N 49°50' W 003°33'3 5.3
2017-Sep-13 13:30N 49°50' W 003°29'3 5.3
2017-Sep-13 13:01N 49°51' W 003°25'2 4.6
2017-Sep-13 12:30N 49°52' W 003°22'2 4.1
2017-Sep-13 12:01N 49°53' W 003°19'2 4.0
2017-Sep-13 11:31N 49°53' W 003°16'2 4.1
2017-Sep-13 11:00N 49°54' W 003°13'2 3.6
2017-Sep-13 10:30N 49°54' W 003°10'2 3.5
2017-Sep-13 10:01N 49°55' W 003°08'2 3.5
2017-Sep-13 09:30N 49°55' W 003°05'2 3.5
2017-Sep-13 09:00N 49°55' W 003°02'2 3.5
2017-Sep-13 08:31N 49°56' W 002°60'2 3.6
2017-Sep-13 08:01N 49°56' W 002°57'2 3.8
2017-Sep-13 07:30N 49°57' W 002°54'2 4.1
2017-Sep-13 07:01N 49°58' W 002°51'2 4.2
2017-Sep-13 06:30N 49°59' W 002°48'2 3.9
2017-Sep-13 06:00N 49°59' W 002°46'2 3.6
2017-Sep-13 05:31N 50°00' W 002°43'2 3.2
2017-Sep-13 05:01N 50°00' W 002°41'2 3.9
2017-Sep-13 04:31N 50°01' W 002°38'2 3.4
2017-Sep-13 03:52N 50°01' W 002°34'17 2.3
2017-Sep-12 20:18N 50°07' W 002°08'2 7.3
2017-Sep-12 20:00N 50°07' W 002°05'4 8.7
2017-Sep-12 19:30N 50°08' W 001°59'510.4
2017-Sep-12 19:01N 50°10' W 001°51'611.2
2017-Sep-12 18:30N 50°12' W 001°43'612.0
2017-Sep-12 18:01N 50°13' W 001°34'612.6
2017-Sep-12 17:30N 50°15' W 001°24'612.3
2017-Sep-12 17:00N 50°17' W 001°15'3010.4
2017-Sep-12 14:08N 50°25' W 000°30'1 8.8
2017-Sep-12 14:00N 50°26' W 000°28'4 8.5
2017-Sep-12 13:31N 50°27' W 000°22'4 8.2
2017-Sep-12 13:00N 50°28' W 000°16'4 8.2
2017-Sep-12 12:30N 50°28' W 000°09'4 8.3
2017-Sep-12 12:01N 50°29' W 000°03'4 8.4
2017-Sep-12 11:31N 50°31' E 000°03'5 9.0
2017-Sep-12 11:00N 50°32' E 000°10'5 9.6
2017-Sep-12 10:31N 50°34' E 000°17'510.1
2017-Sep-12 10:00N 50°36' E 000°24'510.9
2017-Sep-12 09:30N 50°38' E 000°32'611.2
2017-Sep-12 09:01N 50°41' E 000°40'611.8
2017-Sep-12 08:31N 50°44' E 000°48'611.6
2017-Sep-12 08:00N 50°48' E 000°55'611.4
2017-Sep-12 07:30N 50°51' E 001°02'711.1
2017-Sep-12 06:54N 50°55' E 001°10'410.5
2017-Sep-12 06:28N 50°58' E 001°16'5 9.9
2017-Sep-12 06:00N 51°01' E 001°22'5 9.2
2017-Sep-12 05:31N 51°04' E 001°27'4 8.5
2017-Sep-12 05:01N 51°07' E 001°32'4 7.7
2017-Sep-12 04:31N 51°09' E 001°37'4 7.8
2017-Sep-12 04:01N 51°12' E 001°41'4 8.1
2017-Sep-12 03:31N 51°15' E 001°46'4 8.7
2017-Sep-12 03:01N 51°18' E 001°50'5 9.4
2017-Sep-12 02:31N 51°22' E 001°56'5 9.6
2017-Sep-12 02:01N 51°25' E 002°01'510.0
2017-Sep-12 01:30N 51°23' E 002°09'510.1
2017-Sep-12 01:01N 51°21' E 002°16'510.9
2017-Sep-12 00:31N 51°22' E 002°25'510.8
2017-Sep-12 00:00N 51°23' E 002°33'510.4
2017-Sep-11 23:31N 51°23' E 002°41'4 8.8
2017-Sep-11 23:01N 51°21' E 002°48'510.8
2017-Sep-11 22:30N 51°22' E 002°57'611.1
2017-Sep-11 22:00N 51°22' E 003°05'611.6
2017-Sep-11 21:30N 51°24' E 003°14'612.3
2017-Sep-11 21:01N 51°25' E 003°24'713.4
2017-Sep-11 20:31N 51°26' E 003°35'3 5.8
2017-Sep-11 20:01N 51°27' E 003°39'713.4
2017-Sep-11 19:30N 51°23' E 003°48'5 9.6
2017-Sep-11 19:00N 51°25' E 003°55'4 8.6
2017-Sep-11 18:30N 51°26' E 004°02'510.4
2017-Sep-11 18:00N 51°23' E 004°09'3 7.0
2017-Sep-11 17:30N 51°21' E 004°14'2 4.1
2017-Sep-11 17:00N 51°21' E 004°17'0 0.0
2017-Sep-11 16:30N 51°21' E 004°17'1 1.1
2017-Sep-11 16:00N 51°20' E 004°18'3 6.2
2017-Sep-11 15:30N 51°18' E 004°20'3 4.8
2017-Sep-11 14:58N 51°16' E 004°23'0 0.0
2017-Sep-11 14:28N 51°16' E 004°23'0 0.0
2017-Sep-11 13:58N 51°16' E 004°23'0 0.0
2017-Sep-11 13:28N 51°16' E 004°23'0 0.0
2017-Sep-11 12:58N 51°16' E 004°23'0 0.0
2017-Sep-11 12:28N 51°16' E 004°23'0 0.0
2017-Sep-11 11:58N 51°16' E 004°23'0 0.0
2017-Sep-11 11:28N 51°16' E 004°23'0 0.0
2017-Sep-11 10:58N 51°16' E 004°23'0 0.0
2017-Sep-11 10:28N 51°16' E 004°23'0 0.0
2017-Sep-11 09:58N 51°16' E 004°23'0 0.0
2017-Sep-11 09:28N 51°16' E 004°23'0 0.0
2017-Sep-11 08:58N 51°16' E 004°23'0 0.0
2017-Sep-11 08:28N 51°16' E 004°23'0 0.0
2017-Sep-11 07:58N 51°16' E 004°23'0 0.0
2017-Sep-11 07:28N 51°16' E 004°23'0 0.0
2017-Sep-11 06:58N 51°16' E 004°23'0 0.0
2017-Sep-11 06:28N 51°16' E 004°23'0 0.0
2017-Sep-11 05:58N 51°16' E 004°23'0 0.0
2017-Sep-11 05:28N 51°16' E 004°23'0 0.0
2017-Sep-11 04:58N 51°16' E 004°23'0 0.0
2017-Sep-11 04:28N 51°16' E 004°23'0 0.0
2017-Sep-11 03:58N 51°16' E 004°23'0 0.0
2017-Sep-11 03:28N 51°16' E 004°23'0 0.0
2017-Sep-11 02:58N 51°16' E 004°23'0 0.0
2017-Sep-11 02:28N 51°16' E 004°23'0 0.0
2017-Sep-11 01:58N 51°16' E 004°23'0 0.0
2017-Sep-11 01:28N 51°16' E 004°23'0 0.0
2017-Sep-11 00:58N 51°16' E 004°23'0 0.0
2017-Sep-11 00:28N 51°16' E 004°23'0 0.0
2017-Sep-10 23:58N 51°16' E 004°23'0 0.0
2017-Sep-10 23:28N 51°16' E 004°23'0 0.0
2017-Sep-10 22:58N 51°16' E 004°23'0 0.0
2017-Sep-10 22:28N 51°16' E 004°23'0 0.0
2017-Sep-10 21:58N 51°16' E 004°23'0 0.0
2017-Sep-10 21:28N 51°16' E 004°23'0 0.0
2017-Sep-10 20:58N 51°16' E 004°23'0 0.0
2017-Sep-10 20:28N 51°16' E 004°23'0 0.0
2017-Sep-10 19:58N 51°16' E 004°23'0 0.0
2017-Sep-10 19:28N 51°16' E 004°23'0 0.0
2017-Sep-10 18:58N 51°16' E 004°23'0 0.0
2017-Sep-10 18:28N 51°16' E 004°23'0 0.0
2017-Sep-10 17:58N 51°16' E 004°23'0 0.0
2017-Sep-10 17:28N 51°16' E 004°23'0 0.0
2017-Sep-10 16:58N 51°16' E 004°23'0 0.0
2017-Sep-10 16:28N 51°16' E 004°23'0 0.0
2017-Sep-10 15:58N 51°16' E 004°23'0 0.1
2017-Sep-10 15:30N 51°16' E 004°23'2 3.4
2017-Sep-10 15:00N 51°16' E 004°20'0 0.3
2017-Sep-10 14:00N 51°17' E 004°20'0 0.0
2017-Sep-10 13:30N 51°17' E 004°20'1 2.2
2017-Sep-10 13:00N 51°17' E 004°19'4 8.9
2017-Sep-10 12:30N 51°21' E 004°15'4 7.9
2017-Sep-10 12:01N 51°22' E 004°09'5 9.3
2017-Sep-10 11:30N 51°24' E 004°02'3 5.7
2017-Sep-10 11:00N 51°24' E 003°57'5 9.9
2017-Sep-10 10:30N 51°21' E 003°51'5 9.4
2017-Sep-10 10:00N 51°22' E 003°44'5 9.0
2017-Sep-10 09:30N 51°25' E 003°38'4 8.0
2017-Sep-10 09:00N 51°25' E 003°32'5 9.3
2017-Sep-10 08:30N 51°24' E 003°25'5 9.1
2017-Sep-10 08:00N 51°24' E 003°17'5 9.3
2017-Sep-10 07:30N 51°24' E 003°10'510.4
2017-Sep-10 07:00N 51°24' E 003°02'611.4
2017-Sep-10 06:30N 51°23' E 002°53'611.7
2017-Sep-10 06:00N 51°22' E 002°43'510.3
2017-Sep-10 05:30N 51°22' E 002°35'5 9.4
2017-Sep-10 05:00N 51°21' E 002°28'5 9.4
2017-Sep-10 04:30N 51°19' E 002°21'5 9.5
2017-Sep-10 04:00N 51°17' E 002°14'4 8.8
2017-Sep-10 03:30N 51°15' E 002°08'5 9.1
2017-Sep-10 03:00N 51°12' E 002°02'5 9.3
2017-Sep-10 02:30N 51°10' E 001°56'5 9.5
2017-Sep-10 02:00N 51°07' E 001°49'510.7
2017-Sep-10 01:30N 51°04' E 001°43'510.9
2017-Sep-10 01:00N 50°60' E 001°37'610.9
2017-Sep-10 00:30N 50°56' E 001°31'510.5
2017-Sep-10 00:00N 50°51' E 001°28'510.0
2017-Sep-09 23:29N 50°46' E 001°25'5 9.5
2017-Sep-09 22:59N 50°42' E 001°22'42 9.6
2017-Sep-09 18:37N 50°22' E 000°24'410.0
2017-Sep-09 18:13N 50°21' E 000°18'2 9.8
2017-Sep-09 18:00N 50°20' E 000°15'5 9.8
2017-Sep-09 17:30N 50°19' E 000°08'5 9.8
2017-Sep-09 17:00N 50°18' E 000°00'5 9.6
2017-Sep-09 16:30N 50°17' W 000°07'6 9.6
2017-Sep-09 15:55N 50°15' W 000°15'19 9.6
2017-Sep-09 13:56N 50°10' W 000°44'410.5
2017-Sep-09 13:30N 50°09' W 000°51'611.3
2017-Sep-09 13:01N 50°08' W 000°60'612.0
2017-Sep-09 12:31N 50°06' W 001°09'612.9
2017-Sep-09 12:00N 50°05' W 001°18'713.4
2017-Sep-09 11:31N 50°02' W 001°28'714.2
2017-Sep-09 11:01N 50°00' W 001°39'714.8
2017-Sep-09 10:30N 49°58' W 001°50'713.8
2017-Sep-09 10:01N 49°57' W 002°00'714.9
2017-Sep-09 09:30N 49°55' W 002°12'2113.9
2017-Sep-09 08:01N 49°50' W 002°42'012.9
2017-Sep-09 08:00N 49°50' W 002°43'713.3
2017-Sep-09 07:30N 49°48' W 002°52'812.8
2017-Sep-09 06:54N 49°44' W 003°03'512.4
2017-Sep-09 06:30N 49°42' W 003°10'612.0
2017-Sep-09 06:00N 49°39' W 003°18'612.0
2017-Sep-09 05:30N 49°36' W 003°26'611.9
2017-Sep-09 05:00N 49°34' W 003°34'911.6
2017-Sep-09 04:14N 49°30' W 003°47'311.3
2017-Sep-09 03:59N 49°29' W 003°51'  

Dump ship's entire track history